Time;durP1;ratioP1;P1;durP2;ratioP2;P2;SDS_P1;SDS_P2;PMS_P1;PMS_P2;Temp;Humidity;BMP_temperature;BMP_pressure;BME280_temperature;BME280_humidity;BME280_pressure;Samples;Min_cycle;Max_cycle;Signal;HPM_P1;HPM_P2
2022/07/11 00:01:15;;;;;;;6.97;1.80;;;18.50;99.90;;;;;;5011533;28;20467;-71
2022/07/11 00:03:41;;;;;;;8.38;2.60;;;18.50;99.90;;;;;;5011720;28;20025;-71
2022/07/11 00:06:06;;;;;;;8.50;2.35;;;18.40;99.90;;;;;;5011570;28;20561;-71
2022/07/11 00:08:32;;;;;;;4.78;1.70;;;18.40;99.90;;;;;;5011818;28;20022;-71
2022/07/11 00:10:57;;;;;;;10.90;2.50;;;19.20;99.90;;;;;;5011253;28;20232;-71
2022/07/11 00:13:23;;;;;;;4.72;2.10;;;19.40;99.90;;;;;;5011185;28;20714;-70
2022/07/11 00:15:49;;;;;;;4.60;2.17;;;18.30;99.90;;;;;;5011752;28;20398;-71
2022/07/11 00:18:14;;;;;;;7.95;2.00;;;18.40;99.90;;;;;;5011461;28;20116;-71
2022/07/11 00:20:40;;;;;;;2.92;2.20;;;18.40;99.90;;;;;;5011335;28;20184;-71
2022/07/11 00:23:05;;;;;;;4.72;2.22;;;18.40;99.90;;;;;;5011284;28;20033;-71
2022/07/11 00:25:31;;;;;;;6.43;2.33;;;18.30;99.90;;;;;;5010914;28;20345;-71
2022/07/11 00:27:56;;;;;;;5.18;2.10;;;19.00;99.90;;;;;;5011132;28;20022;-71
2022/07/11 00:30:22;;;;;;;5.63;1.83;;;18.40;99.90;;;;;;5011102;28;20038;-71
2022/07/11 00:32:48;;;;;;;5.97;2.00;;;18.30;99.90;;;;;;5011187;28;20033;-71
2022/07/11 00:35:13;;;;;;;5.55;1.67;;;18.30;99.90;;;;;;5011005;28;20034;-70
2022/07/11 00:37:39;;;;;;;5.75;2.58;;;18.20;99.90;;;;;;5011183;28;20034;-70
2022/07/11 00:40:05;;;;;;;5.53;2.38;;;18.30;99.90;;;;;;5010428;28;20018;-71
2022/07/11 00:42:31;;;;;;;7.78;2.25;;;18.30;99.90;;;;;;5011301;28;20087;-70
2022/07/11 00:44:57;;;;;;;5.43;1.73;;;18.30;99.90;;;;;;5011166;28;20460;-71
2022/07/11 00:47:22;;;;;;;5.80;1.98;;;18.60;99.90;;;;;;5010612;28;20045;-71
2022/07/11 00:49:48;;;;;;;7.72;1.83;;;18.30;99.90;;;;;;5010864;28;20056;-71
2022/07/11 00:52:13;;;;;;;6.93;1.92;;;19.20;99.90;;;;;;4992975;28;20022;-71
2022/07/11 00:54:39;;;;;;;5.07;1.73;;;18.20;99.90;;;;;;5009510;28;20026;-71
2022/07/11 00:57:05;;;;;;;2.25;1.33;;;18.20;99.90;;;;;;5010480;28;20041;-71
2022/07/11 00:59:30;;;;;;;4.72;1.50;;;18.30;99.90;;;;;;5010693;28;20030;-71
2022/07/11 01:01:56;;;;;;;2.97;1.40;;;18.20;99.90;;;;;;5010776;28;20368;-71
2022/07/11 01:04:22;;;;;;;7.03;1.33;;;18.10;99.90;;;;;;5010383;28;20022;-71
2022/07/11 01:06:47;;;;;;;2.92;1.50;;;18.10;99.90;;;;;;5010313;28;20034;-71
2022/07/11 01:09:13;;;;;;;3.25;1.10;;;18.20;99.90;;;;;;5009959;28;20501;-71
2022/07/11 01:11:39;;;;;;;3.65;1.42;;;18.10;99.90;;;;;;5010178;28;20030;-70
2022/07/11 01:14:05;;;;;;;2.85;1.80;;;18.10;99.90;;;;;;5010273;28;20029;-71
2022/07/11 01:16:30;;;;;;;2.75;1.42;;;18.00;99.90;;;;;;5010433;28;20345;-71
2022/07/11 01:18:56;;;;;;;5.68;1.58;;;18.80;99.90;;;;;;5010224;28;20465;-71
2022/07/11 01:21:32;;;;;;;4.55;1.35;;;18.00;99.90;;;;;;5010062;28;20050;-71
2022/07/11 01:24:02;;;;;;;6.22;1.65;;;18.10;99.90;;;;;;5010222;28;20013;-71
2022/07/11 01:26:29;;;;;;;6.40;1.75;;;18.20;99.90;;;;;;5010234;28;20113;-71
2022/07/11 01:28:57;;;;;;;4.32;1.35;;;18.00;99.90;;;;;;5009984;28;20025;-71
2022/07/11 01:31:22;;;;;;;4.63;1.30;;;18.10;99.90;;;;;;5010006;28;20037;-70
2022/07/11 01:33:48;;;;;;;6.68;1.40;;;18.00;99.90;;;;;;5009933;28;20014;-71
2022/07/11 01:36:13;;;;;;;3.63;1.95;;;18.00;99.90;;;;;;5009871;28;20060;-71
2022/07/11 01:38:39;;;;;;;2.38;1.60;;;18.00;99.90;;;;;;5009530;28;20021;-70
2022/07/11 01:41:06;;;;;;;3.65;1.23;;;18.10;99.90;;;;;;5009694;28;20498;-71
2022/07/11 01:43:32;;;;;;;4.03;1.05;;;18.00;99.90;;;;;;5010062;28;20037;-71
2022/07/11 01:45:57;;;;;;;5.03;1.33;;;18.10;99.90;;;;;;5009619;28;20034;-70
2022/07/11 01:48:24;;;;;;;3.10;1.10;;;18.10;99.90;;;;;;4991893;28;20034;-70
2022/07/11 01:50:50;;;;;;;3.55;0.85;;;18.10;99.90;;;;;;5009540;28;20033;-71
2022/07/11 01:53:16;;;;;;;4.10;0.98;;;18.00;99.90;;;;;;5008963;28;20065;-71
2022/07/11 01:55:42;;;;;;;2.53;0.95;;;18.10;99.90;;;;;;5009619;28;20037;-71
2022/07/11 01:58:08;;;;;;;3.38;1.25;;;18.20;99.90;;;;;;5009437;28;20394;-71
2022/07/11 02:00:33;;;;;;;2.35;0.90;;;17.90;99.90;;;;;;5009809;28;20104;-71
2022/07/11 02:02:59;;;;;;;2.92;1.08;;;18.10;99.90;;;;;;5009168;28;20025;-71
2022/07/11 02:05:25;;;;;;;3.80;1.05;;;18.00;99.90;;;;;;5009829;28;20056;-71
2022/07/11 02:10:34;;;;;;;;;;;18.10;99.90;;;;;;5010062;28;20072;-71
2022/07/11 02:13:00;;;;;;;3.58;1.40;;;17.80;99.90;;;;;;5009247;28;19905;-71
2022/07/11 02:15:26;;;;;;;3.05;1.13;;;18.10;99.90;;;;;;5009573;28;20026;-71
2022/07/11 02:17:52;;;;;;;4.25;1.20;;;18.00;99.90;;;;;;5009709;28;20433;-71
2022/07/11 02:20:19;;;;;;;2.95;1.05;;;18.20;99.90;;;;;;5009001;28;20123;-71
2022/07/11 02:22:44;;;;;;;2.58;1.35;;;18.10;99.90;;;;;;5008895;28;20030;-71
2022/07/11 02:25:10;;;;;;;4.28;1.70;;;18.10;99.90;;;;;;5009042;28;20040;-71
2022/07/11 02:27:36;;;;;;;3.92;1.48;;;18.00;99.90;;;;;;5009192;28;20474;-71
2022/07/11 02:30:02;;;;;;;5.90;1.58;;;18.20;99.90;;;;;;5008837;28;20047;-71
2022/07/11 02:32:27;;;;;;;2.38;1.83;;;18.00;99.90;;;;;;5009490;28;20033;-70
2022/07/11 02:34:53;;;;;;;3.58;1.30;;;18.10;99.90;;;;;;5009023;28;20026;-71
2022/07/11 02:37:19;;;;;;;2.97;1.13;;;18.00;99.90;;;;;;5008310;28;20094;-71
2022/07/11 02:39:45;;;;;;;2.85;1.33;;;18.00;99.90;;;;;;5009041;28;20105;-71
2022/07/11 02:42:10;;;;;;;3.58;1.80;;;18.00;99.90;;;;;;5008713;28;20161;-71
2022/07/11 02:44:36;;;;;;;2.03;1.00;;;18.00;99.90;;;;;;5009152;28;20026;-70
2022/07/11 02:47:02;;;;;;;4.20;1.65;;;18.10;99.90;;;;;;5008579;28;20117;-71
2022/07/11 02:49:28;;;;;;;5.00;1.38;;;18.20;99.90;;;;;;5009235;28;20029;-71
2022/07/11 02:51:53;;;;;;;2.03;1.50;;;18.00;99.90;;;;;;5008387;28;20029;-70
2022/07/11 02:54:19;;;;;;;4.50;1.17;;;18.00;99.90;;;;;;5008837;28;20026;-71
2022/07/11 02:56:45;;;;;;;2.65;1.23;;;18.00;99.90;;;;;;5008606;28;20030;-71
2022/07/11 02:59:11;;;;;;;3.00;1.33;;;18.00;99.90;;;;;;5008793;28;20014;-71
2022/07/11 03:01:36;;;;;;;5.22;2.47;;;18.00;99.90;;;;;;5008819;28;20480;-71
2022/07/11 03:04:02;;;;;;;3.38;1.67;;;18.10;99.90;;;;;;5008733;28;20065;-71
2022/07/11 03:06:28;;;;;;;3.90;1.52;;;18.00;99.90;;;;;;5008268;28;20149;-71
2022/07/11 03:08:53;;;;;;;2.22;1.45;;;20.70;99.90;;;;;;5008850;28;20029;-71
2022/07/11 03:11:19;;;;;;;2.67;0.85;;;17.90;99.90;;;;;;5008641;28;20034;-70
2022/07/11 03:13:45;;;;;;;4.35;1.20;;;17.90;99.90;;;;;;5008616;28;20018;-71
2022/07/11 03:16:10;;;;;;;2.63;0.95;;;17.70;99.90;;;;;;5008841;28;20113;-71
2022/07/11 03:18:36;;;;;;;5.05;1.25;;;17.70;99.90;;;;;;5012897;28;20053;-70
2022/07/11 03:21:01;;;;;;;2.55;1.08;;;17.90;99.90;;;;;;5011755;28;20058;-70
2022/07/11 03:23:27;;;;;;;5.88;1.20;;;17.80;99.90;;;;;;5012738;28;20076;-71
2022/07/11 03:25:52;;;;;;;3.78;1.00;;;18.00;99.90;;;;;;5012380;28;20426;-71
2022/07/11 03:28:18;;;;;;;3.88;1.75;;;17.90;99.90;;;;;;5012173;28;20708;-70
2022/07/11 03:30:44;;;;;;;3.35;1.35;;;17.80;99.90;;;;;;5012415;28;20100;-71
2022/07/11 03:33:09;;;;;;;3.53;1.30;;;18.90;99.90;;;;;;5012232;28;20021;-71
2022/07/11 03:35:40;;;;;;;5.07;1.35;;;17.80;99.90;;;;;;4994092;28;20060;-70
2022/07/11 03:38:06;;;;;;;8.52;1.88;;;17.80;99.90;;;;;;5012217;28;20025;-71
2022/07/11 03:40:32;;;;;;;4.50;1.17;;;17.80;99.90;;;;;;5012503;28;20018;-71
2022/07/11 03:42:57;;;;;;;3.83;1.50;;;17.70;99.90;;;;;;5012238;28;20026;-71
2022/07/11 03:45:23;;;;;;;8.00;1.20;;;17.70;99.90;;;;;;5011921;28;20148;-70
2022/07/11 03:47:49;;;;;;;6.05;1.70;;;17.70;99.90;;;;;;5012034;28;20034;-71
2022/07/11 03:50:15;;;;;;;4.57;1.20;;;17.60;99.90;;;;;;5011419;28;20457;-70
2022/07/11 03:52:40;;;;;;;4.70;1.45;;;17.50;99.90;;;;;;5011826;28;20030;-70
2022/07/11 03:55:07;;;;;;;4.22;1.40;;;17.50;99.90;;;;;;5011822;28;20097;-71
2022/07/11 03:57:33;;;;;;;2.38;1.40;;;17.50;99.90;;;;;;5012182;28;20021;-70
2022/07/11 03:59:59;;;;;;;4.47;1.45;;;17.40;99.90;;;;;;5010241;28;20025;-70
2022/07/11 04:02:25;;;;;;;4.50;1.40;;;17.50;99.90;;;;;;5011968;28;20489;-70
2022/07/11 04:04:50;;;;;;;3.63;1.25;;;17.50;99.90;;;;;;5011183;28;20022;-70
2022/07/11 04:07:16;;;;;;;4.38;1.40;;;17.40;99.90;;;;;;5011601;28;20073;-71
2022/07/11 04:09:42;;;;;;;5.53;1.67;;;17.50;99.90;;;;;;5011598;28;20470;-71
2022/07/11 04:12:07;;;;;;;4.93;1.50;;;17.50;99.90;;;;;;5011548;28;20018;-71
2022/07/11 04:14:33;;;;;;;3.20;1.38;;;17.50;99.90;;;;;;5011856;28;20030;-71
2022/07/11 04:16:58;;;;;;;4.82;2.05;;;17.30;99.90;;;;;;5011288;28;20037;-71
2022/07/11 04:19:24;;;;;;;4.82;1.77;;;17.30;99.90;;;;;;5010931;28;20022;-70
2022/07/11 04:21:49;;;;;;;5.97;1.45;;;17.40;99.90;;;;;;5011469;28;20029;-71
2022/07/11 04:24:15;;;;;;;6.03;1.67;;;17.50;99.90;;;;;;5011353;28;20379;-70
2022/07/11 04:26:41;;;;;;;4.75;1.50;;;17.50;99.90;;;;;;5010836;28;20034;-70
2022/07/11 04:29:07;;;;;;;3.63;1.75;;;17.50;99.90;;;;;;5010063;28;20022;-70
2022/07/11 04:31:32;;;;;;;5.68;1.50;;;17.50;99.90;;;;;;5010893;28;20033;-71
2022/07/11 04:33:58;;;;;;;3.10;1.30;;;17.60;99.90;;;;;;5010018;28;20026;-70
2022/07/11 04:36:24;;;;;;;5.47;1.85;;;17.50;99.90;;;;;;5010960;28;20030;-70
2022/07/11 04:38:49;;;;;;;6.00;1.75;;;17.50;99.90;;;;;;5011259;28;20034;-70
2022/07/11 04:41:15;;;;;;;5.72;1.52;;;17.50;99.90;;;;;;5008124;28;20022;-70
2022/07/11 04:43:41;;;;;;;2.88;1.63;;;17.50;99.90;;;;;;5008287;28;20038;-70
2022/07/11 04:46:06;;;;;;;5.32;1.80;;;17.40;99.90;;;;;;5009399;28;20049;-70
2022/07/11 04:48:32;;;;;;;5.60;1.75;;;17.40;99.90;;;;;;5010180;28;20028;-70
2022/07/11 04:50:57;;;;;;;2.40;1.42;;;17.60;99.90;;;;;;5010517;28;20022;-70
2022/07/11 04:53:23;;;;;;;2.35;1.27;;;17.50;99.90;;;;;;5010910;28;20076;-71
2022/07/11 04:55:49;;;;;;;5.68;1.67;;;17.50;99.90;;;;;;5010458;28;20030;-70
2022/07/11 04:58:15;;;;;;;5.57;1.92;;;17.60;99.90;;;;;;5010097;28;20380;-70
2022/07/11 05:00:41;;;;;;;6.25;2.17;;;17.60;99.90;;;;;;5010891;28;20092;-70
2022/07/11 05:03:06;;;;;;;6.03;2.20;;;17.50;99.90;;;;;;5006617;28;20037;-70
2022/07/11 05:05:32;;;;;;;3.22;2.10;;;17.50;99.90;;;;;;5007273;28;20045;-70
2022/07/11 05:07:58;;;;;;;3.30;1.60;;;17.50;99.90;;;;;;5009302;28;20061;-71
2022/07/11 05:10:23;;;;;;;4.78;1.50;;;17.60;99.90;;;;;;5002580;28;20574;-70
2022/07/11 05:12:49;;;;;;;4.18;1.70;;;17.60;99.90;;;;;;5007070;28;20297;-70
2022/07/11 05:15:14;;;;;;;6.45;1.88;;;17.70;99.90;;;;;;5009860;28;20018;-70
2022/07/11 05:17:40;;;;;;;4.53;1.73;;;17.80;99.90;;;;;;5007740;28;20376;-71
2022/07/11 05:20:06;;;;;;;5.18;2.13;;;17.80;99.90;;;;;;5009696;28;20133;-71
2022/07/11 05:22:33;;;;;;;3.70;2.55;;;17.90;99.90;;;;;;4992704;28;20022;-71
2022/07/11 05:24:58;;;;;;;4.30;1.70;;;17.90;99.90;;;;;;5009855;28;20387;-70
2022/07/11 05:27:24;;;;;;;1.88;1.77;;;17.80;99.90;;;;;;5010380;28;20038;-71
2022/07/11 05:29:49;;;;;;;2.92;1.70;;;17.80;99.90;;;;;;5009873;28;20022;-71
2022/07/11 05:32:15;;;;;;;2.22;1.65;;;17.80;99.90;;;;;;5009498;28;20040;-70
2022/07/11 05:34:41;;;;;;;2.83;1.50;;;17.80;99.90;;;;;;5010171;28;20018;-71
2022/07/11 05:37:07;;;;;;;2.75;1.48;;;18.70;99.90;;;;;;5009929;28;20024;-70
2022/07/11 05:39:32;;;;;;;3.72;1.80;;;17.80;99.90;;;;;;5010035;28;20049;-71
2022/07/11 05:41:58;;;;;;;3.90;1.63;;;17.80;99.90;;;;;;5009848;28;20485;-71
2022/07/11 05:44:24;;;;;;;2.13;1.63;;;17.90;99.90;;;;;;5010164;28;20025;-71
2022/07/11 05:46:50;;;;;;;5.00;2.08;;;17.80;99.90;;;;;;5009614;28;20086;-71
2022/07/11 05:49:15;;;;;;;4.85;1.75;;;18.00;99.90;;;;;;5009944;28;20022;-71
2022/07/11 05:51:41;;;;;;;4.00;2.00;;;18.10;99.90;;;;;;5009743;28;20191;-71
2022/07/11 05:54:07;;;;;;;2.60;1.30;;;18.00;99.90;;;;;;5009915;28;20476;-71
2022/07/11 05:56:32;;;;;;;4.10;1.17;;;17.90;99.90;;;;;;5009868;28;20026;-71
2022/07/11 05:58:58;;;;;;;1.90;1.10;;;18.10;99.90;;;;;;5009298;28;20022;-71
2022/07/11 06:01:25;;;;;;;0.93;0.82;;;19.30;99.90;;;;;;5009569;28;20061;-70
2022/07/11 06:03:51;;;;;;;1.73;1.05;;;18.00;99.90;;;;;;5009645;28;20084;-71
2022/07/11 06:06:17;;;;;;;3.42;1.05;;;18.00;99.90;;;;;;5009362;28;20499;-71
2022/07/11 06:08:43;;;;;;;0.80;0.80;;;17.90;99.90;;;;;;5009474;28;20018;-71
2022/07/11 06:11:10;;;;;;;2.15;1.10;;;18.10;99.90;;;;;;5009524;28;20125;-71
2022/07/11 06:13:37;;;;;;;2.22;1.35;;;18.60;99.90;;;;;;5009021;28;20105;-71
2022/07/11 06:16:04;;;;;;;1.90;1.25;;;18.20;99.90;;;;;;5009173;28;20120;-71
2022/07/11 06:18:29;;;;;;;1.30;1.20;;;18.20;99.90;;;;;;5009544;28;20046;-71
2022/07/11 06:20:55;;;;;;;0.70;0.63;;;18.10;99.90;;;;;;5009229;28;20089;-71
2022/07/11 06:23:20;;;;;;;1.48;0.60;;;18.10;99.90;;;;;;4991448;28;20026;-72
2022/07/11 06:25:46;;;;;;;1.38;0.73;;;18.10;99.90;;;;;;5009109;28;20021;-77
2022/07/11 06:28:12;;;;;;;1.75;0.50;;;18.20;99.90;;;;;;5008690;28;20029;-77
2022/07/11 06:30:37;;;;;;;0.60;0.50;;;18.30;99.90;;;;;;5009083;28;20575;-76
2022/07/11 06:33:03;;;;;;;1.45;0.47;;;18.40;99.90;;;;;;5009331;28;20088;-77
2022/07/11 06:35:30;;;;;;;0.60;0.40;;;18.40;99.90;;;;;;5009120;28;20125;-77
2022/07/11 06:37:59;;;;;;;1.10;0.52;;;18.40;99.90;;;;;;5009048;28;20080;-77
2022/07/11 06:40:25;;;;;;;0.88;0.50;;;18.60;99.90;;;;;;5009237;28;20520;-77
2022/07/11 06:42:52;;;;;;;0.65;0.50;;;18.70;99.90;;;;;;5008369;28;20113;-77
2022/07/11 06:45:18;;;;;;;0.90;0.70;;;18.70;99.90;;;;;;5009022;28;20026;-77
2022/07/11 06:47:43;;;;;;;0.63;0.52;;;18.80;99.90;;;;;;5008871;28;20451;-77
2022/07/11 06:50:09;;;;;;;1.25;0.70;;;18.90;99.90;;;;;;5008802;28;20054;-77
2022/07/11 06:52:35;;;;;;;1.17;0.77;;;19.80;99.90;;;;;;5008416;28;20029;-78
2022/07/11 06:55:01;;;;;;;1.15;1.05;;;19.00;99.90;;;;;;5008946;28;20076;-77
2022/07/11 06:57:26;;;;;;;1.05;0.50;;;19.10;99.90;;;;;;5008471;28;20041;-76
2022/07/11 06:59:52;;;;;;;1.20;0.90;;;19.00;99.90;;;;;;5008756;28;20408;-76
2022/07/11 07:02:18;;;;;;;1.23;0.70;;;19.10;99.90;;;;;;5008706;28;20022;-76
2022/07/11 07:04:44;;;;;;;0.70;0.70;;;19.10;99.90;;;;;;5008955;28;20036;-76
2022/07/11 07:07:09;;;;;;;1.30;0.85;;;19.10;99.90;;;;;;5008774;28;20041;-77
2022/07/11 07:09:35;;;;;;;1.52;0.80;;;19.10;99.90;;;;;;5008790;28;20033;-76
2022/07/11 07:12:00;;;;;;;0.60;0.60;;;19.40;99.90;;;;;;5008228;28;20101;-76
2022/07/11 07:14:26;;;;;;;0.50;0.50;;;19.40;99.90;;;;;;5008945;28;20081;-75
2022/07/11 07:16:51;;;;;;;0.70;0.70;;;19.60;99.90;;;;;;5008598;28;20696;-76
2022/07/11 07:19:17;;;;;;;0.80;0.60;;;19.60;99.90;;;;;;5009034;28;20034;-74
2022/07/11 07:21:44;;;;;;;0.70;0.50;;;19.90;99.90;;;;;;5008419;28;20081;-77
2022/07/11 07:24:09;;;;;;;0.50;0.47;;;20.10;99.90;;;;;;5008593;28;20022;-76
2022/07/11 07:26:35;;;;;;;0.88;0.60;;;20.40;99.90;;;;;;5007881;28;20781;-76
2022/07/11 07:29:00;;;;;;;0.57;0.47;;;20.50;99.90;;;;;;5008163;28;20033;-76
2022/07/11 07:31:26;;;;;;;1.52;0.60;;;20.60;99.90;;;;;;5008723;28;20030;-77
2022/07/11 07:33:51;;;;;;;0.68;0.60;;;20.70;99.90;;;;;;5008453;28;20018;-77
2022/07/11 07:36:17;;;;;;;0.52;0.50;;;20.80;99.90;;;;;;5008559;28;20029;-76
2022/07/11 07:38:46;;;;;;;0.82;0.50;;;21.00;99.90;;;;;;5008582;28;20036;-77
2022/07/11 07:41:12;;;;;;;0.60;0.32;;;21.30;99.90;;;;;;5007805;28;20022;-76
2022/07/11 07:43:38;;;;;;;0.50;0.40;;;21.20;99.90;;;;;;5008680;28;20022;-76
2022/07/11 07:46:04;;;;;;;0.40;0.30;;;21.50;99.90;;;;;;5008311;28;20092;-77
2022/07/11 07:48:30;;;;;;;0.40;0.40;;;21.40;99.90;;;;;;5008465;28;20029;-76
2022/07/11 07:50:56;;;;;;;0.47;0.47;;;21.30;99.90;;;;;;5008315;28;20021;-77
2022/07/11 07:53:21;;;;;;;1.35;0.45;;;21.20;99.70;;;;;;5008302;28;20438;-77
2022/07/11 07:55:47;;;;;;;0.60;0.50;;;20.90;99.90;;;;;;5007944;28;20080;-76
2022/07/11 07:58:12;;;;;;;0.40;0.40;;;20.80;99.90;;;;;;5008230;28;20022;-76
2022/07/11 08:03:22;;;;;;;0.70;0.50;;;20.50;99.90;;;;;;5010067;28;20506;-76
2022/07/11 08:05:47;;;;;;;0.40;0.40;;;20.30;99.90;;;;;;5011715;28;20057;-76
2022/07/11 08:08:13;;;;;;;0.63;0.40;;;20.20;99.90;;;;;;5011657;28;20040;-76
2022/07/11 08:10:39;;;;;;;0.80;0.63;;;20.20;99.90;;;;;;5011181;28;20022;-78
2022/07/11 08:13:04;;;;;;;1.00;0.88;;;20.20;99.90;;;;;;5011494;28;20022;-73
2022/07/11 08:15:30;;;;;;;0.80;0.55;;;20.70;99.90;;;;;;5011815;28;20022;-75
2022/07/11 08:17:55;;;;;;;0.60;0.50;;;20.20;99.90;;;;;;5011624;28;20026;-75
2022/07/11 08:20:21;;;;;;;2.47;0.77;;;20.00;99.90;;;;;;5011019;28;20069;-77
2022/07/11 08:22:46;;;;;;;0.70;0.55;;;20.00;99.90;;;;;;5011530;28;20105;-76
2022/07/11 08:25:12;;;;;;;0.52;0.40;;;19.90;99.90;;;;;;5010770;28;20057;-77
2022/07/11 08:27:37;;;;;;;0.73;0.55;;;19.90;99.90;;;;;;5011457;28;20033;-77
2022/07/11 08:30:05;;;;;;;0.60;0.43;;;19.80;99.90;;;;;;5012209;28;20456;-77
2022/07/11 08:32:31;;;;;;;3.42;0.60;;;19.90;99.90;;;;;;5014100;28;20133;-77
2022/07/11 08:34:56;;;;;;;1.70;0.50;;;20.00;99.90;;;;;;5013414;28;20117;-77
2022/07/11 08:37:22;;;;;;;2.75;0.50;;;20.10;99.90;;;;;;5011303;28;20030;-76
2022/07/11 08:39:47;;;;;;;1.00;0.60;;;20.90;99.90;;;;;;5010718;28;20033;-76
2022/07/11 08:42:14;;;;;;;1.02;0.60;;;20.40;99.90;;;;;;5011083;28;20034;-77
2022/07/11 08:44:41;;;;;;;2.75;0.60;;;20.40;99.90;;;;;;5011164;28;20014;-76
2022/07/11 08:47:07;;;;;;;0.80;0.60;;;21.20;99.90;;;;;;5010861;28;20038;-77
2022/07/11 08:49:32;;;;;;;0.57;0.40;;;20.70;99.90;;;;;;5011310;28;20034;-77
2022/07/11 08:51:58;;;;;;;0.73;0.30;;;20.80;99.90;;;;;;5010948;28;20021;-77
2022/07/11 08:54:24;;;;;;;0.77;0.40;;;20.80;99.90;;;;;;5010570;28;20048;-76
2022/07/11 08:56:52;;;;;;;0.88;0.43;;;;;;;;;;5011004;28;20120;-77
2022/07/11 08:59:18;;;;;;;1.73;0.50;;;20.20;99.90;;;;;;5010803;28;20112;-77
2022/07/11 09:01:46;;;;;;;1.63;0.60;;;20.10;99.90;;;;;;5010853;28;20026;-77
2022/07/11 09:04:13;;;;;;;1.10;0.30;;;20.00;99.90;;;;;;5010670;28;20061;-77
2022/07/11 09:06:39;;;;;;;0.55;0.55;;;20.00;99.90;;;;;;4992923;28;20030;-76
2022/07/11 09:09:05;;;;;;;1.20;0.82;;;20.40;99.90;;;;;;5010319;28;20471;-76
2022/07/11 09:11:50;;;;;;;2.58;0.52;;;20.50;99.90;;;;;;5010891;28;20029;-77
2022/07/11 09:14:22;;;;;;;0.70;0.47;;;20.50;99.90;;;;;;5010038;28;20141;-77
2022/07/11 09:16:53;;;;;;;0.30;0.30;;;20.10;99.90;;;;;;5010562;28;20045;-76
2022/07/11 09:19:23;;;;;;;0.90;0.50;;;20.10;99.90;;;;;;5010233;28;20033;-76
2022/07/11 09:25:19;;;;;;;2.95;0.45;;;20.60;99.90;;;;;;5010612;28;20529;-76
2022/07/11 09:27:52;;;;;;;0.60;0.30;;;20.80;99.90;;;;;;5010429;28;20053;-76
2022/07/11 09:30:22;;;;;;;1.02;0.40;;;20.90;99.40;;;;;;5010346;28;20117;-76
2022/07/11 09:33:03;;;;;;;0.40;0.40;;;21.10;99.00;;;;;;5010161;28;20084;-76
2022/07/11 09:35:41;;;;;;;0.82;0.40;;;21.30;98.90;;;;;;5010439;28;20037;-76
2022/07/11 09:38:12;;;;;;;0.82;0.30;;;21.30;99.40;;;;;;5009504;28;20097;-76
2022/07/11 09:40:42;;;;;;;0.22;0.20;;;21.30;99.40;;;;;;5010144;28;20026;-76
2022/07/11 09:43:07;;;;;;;0.20;0.20;;;21.10;99.10;;;;;;5010067;28;20026;-76
2022/07/11 09:45:34;;;;;;;0.63;0.30;;;21.30;99.00;;;;;;5010303;28;20077;-76
2022/07/11 09:48:08;;;;;;;1.05;0.50;;;21.40;99.20;;;;;;5009612;28;20467;-76
2022/07/11 09:50:33;;;;;;;;;;;21.20;98.40;;;;;;5008893;28;20088;-76
2022/07/11 09:53:08;;;;;;;0.82;0.45;;;21.60;99.80;;;;;;5009234;28;19906;-76
2022/07/11 09:55:37;;;;;;;0.70;0.40;;;20.90;99.00;;;;;;5009963;28;20034;-76
2022/07/11 09:58:06;;;;;;;1.05;0.47;;;20.70;99.70;;;;;;5009400;28;20051;-74
2022/07/11 10:00:33;;;;;;;0.50;0.40;;;20.60;99.90;;;;;;5009991;28;20409;-75
2022/07/11 10:03:00;;;;;;;1.02;0.60;;;20.50;99.90;;;;;;5009214;28;20447;-75
2022/07/11 10:05:26;;;;;;;0.52;0.50;;;21.90;99.90;;;;;;5009356;28;20463;-75
2022/07/11 10:07:51;;;;;;;0.80;0.70;;;20.40;99.90;;;;;;5009568;28;20073;-75
2022/07/11 10:10:17;;;;;;;1.00;0.70;;;20.50;99.90;;;;;;5009521;28;20073;-75
2022/07/11 10:12:46;;;;;;;1.25;0.80;;;20.60;99.90;;;;;;5009347;28;20075;-76
2022/07/11 10:15:17;;;;;;;0.88;0.60;;;21.90;99.90;;;;;;5009227;28;20054;-75
2022/07/11 10:18:12;;;;;;;0.70;0.60;;;20.80;99.80;;;;;;5009054;28;20097;-75
2022/07/11 10:20:55;;;;;;;0.85;0.70;;;20.90;99.10;;;;;;5008755;28;20052;-75
2022/07/11 10:23:42;;;;;;;0.77;0.60;;;20.90;99.80;;;;;;5009077;28;20030;-76
2022/07/11 10:26:20;;;;;;;1.05;0.60;;;21.00;99.10;;;;;;5008379;28;20038;-75
2022/07/11 10:28:57;;;;;;;0.75;0.40;;;20.80;98.70;;;;;;4991582;28;20041;-77
2022/07/11 10:31:24;;;;;;;0.70;0.40;;;20.90;99.90;;;;;;4991523;28;20467;-77
2022/07/11 10:34:21;;;;;;;1.65;0.60;;;20.50;99.90;;;;;;5009078;28;20065;-77
2022/07/11 10:36:46;;;;;;;1.77;0.50;;;20.50;99.90;;;;;;5008712;28;20108;-78
2022/07/11 10:39:24;;;;;;;0.50;0.30;;;20.40;99.90;;;;;;5009086;28;21101;-77
2022/07/11 10:41:51;;;;;;;0.60;0.30;;;20.40;99.90;;;;;;5009258;28;20497;-78
2022/07/11 10:44:17;;;;;;;1.00;0.40;;;20.60;99.90;;;;;;5009002;28;20568;-77
2022/07/11 10:46:43;;;;;;;0.52;0.25;;;20.60;99.90;;;;;;5008636;28;20038;-76
2022/07/11 10:49:22;;;;;;;0.40;0.30;;;20.70;99.90;;;;;;5008392;28;20025;-76
2022/07/11 10:52:07;;;;;;;0.60;0.30;;;20.80;99.60;;;;;;5009135;28;20037;-76
2022/07/11 10:54:42;;;;;;;0.90;0.40;;;21.00;99.90;;;;;;5009045;28;20022;-76
2022/07/11 10:57:19;;;;;;;0.52;0.32;;;21.20;99.90;;;;;;5008645;28;20030;-75
2022/07/11 10:59:58;;;;;;;0.95;0.40;;;21.30;99.70;;;;;;5008655;28;20022;-76
2022/07/11 11:02:24;;;;;;;0.77;0.30;;;21.70;99.50;;;;;;5008606;28;20037;-75
2022/07/11 11:05:03;;;;;;;0.30;0.30;;;22.50;99.00;;;;;;4990519;28;20034;-75
2022/07/11 11:07:40;;;;;;;0.38;0.30;;;22.10;98.00;;;;;;5008415;28;20034;-75
2022/07/11 11:10:18;;;;;;;0.40;0.30;;;22.20;97.90;;;;;;5008589;28;20116;-75
2022/07/11 11:13:16;;;;;;;0.47;0.38;;;22.30;98.30;;;;;;5008556;28;20022;-75
2022/07/11 11:15:46;;;;;;;0.50;0.40;;;22.50;98.10;;;;;;4985723;28;20367;-75
2022/07/11 11:18:24;;;;;;;0.80;0.30;;;22.80;96.80;;;;;;4994448;28;20052;-75
2022/07/11 11:21:06;;;;;;;2.15;0.30;;;22.60;97.70;;;;;;5008322;28;20046;-79
2022/07/11 11:23:36;;;;;;;0.85;0.40;;;22.20;97.20;;;;;;5008800;28;20579;-77
2022/07/11 11:26:18;;;;;;;0.40;0.20;;;23.10;96.10;;;;;;5008656;28;20029;-78
2022/07/11 11:29:01;;;;;;;1.55;0.43;;;23.30;96.10;;;;;;5008650;28;20483;-80
2022/07/11 11:31:29;;;;;;;1.75;0.40;;;23.50;96.70;;;;;;5008836;28;20022;-79
2022/07/11 11:33:56;;;;;;;0.70;0.43;;;23.60;96.10;;;;;;5008052;28;20025;-80
2022/07/11 11:36:23;;;;;;;0.85;0.52;;;23.70;95.60;;;;;;5008256;28;20045;-80
2022/07/11 11:38:49;;;;;;;1.20;0.47;;;23.70;95.40;;;;;;5011122;28;20025;-79
2022/07/11 11:41:29;;;;;;;0.77;0.43;;;23.70;95.40;;;;;;5012213;28;20041;-79
2022/07/11 11:43:56;;;;;;;1.05;0.32;;;23.80;95.50;;;;;;5012171;28;20029;-79
2022/07/11 11:46:27;;;;;;;0.47;0.43;;;23.90;95.00;;;;;;5011873;28;20049;-78
2022/07/11 11:48:57;;;;;;;2.40;0.47;;;23.80;95.10;;;;;;5011686;28;20026;-78
2022/07/11 11:51:24;;;;;;;1.38;0.50;;;24.00;95.00;;;;;;5011759;28;20090;-78
2022/07/11 11:54:01;;;;;;;2.05;0.50;;;24.10;94.50;;;;;;5012304;28;20352;-79
2022/07/11 11:56:34;;;;;;;0.38;0.30;;;24.50;94.50;;;;;;5012201;28;20022;-76
2022/07/11 11:59:08;;;;;;;1.15;0.47;;;24.40;93.50;;;;;;5011828;28;20048;-78
2022/07/11 12:01:40;;;;;;;1.08;0.50;;;24.40;94.30;;;;;;5011300;28;20030;-78
2022/07/11 12:04:10;;;;;;;0.88;0.30;;;24.30;94.10;;;;;;5011597;28;20026;-78
2022/07/11 12:06:37;;;;;;;1.70;0.35;;;24.20;93.30;;;;;;5011748;28;20053;-77
2022/07/11 12:09:06;;;;;;;0.68;0.40;;;24.00;94.10;;;;;;5011493;28;20032;-78
2022/07/11 12:11:33;;;;;;;0.60;0.30;;;25.50;94.60;;;;;;5011855;28;20022;-79
2022/07/11 12:14:10;;;;;;;0.35;0.30;;;24.00;94.10;;;;;;5011501;28;20356;-78
2022/07/11 12:16:46;;;;;;;0.40;0.32;;;23.90;94.40;;;;;;5010906;28;20093;-78
2022/07/11 12:19:17;;;;;;;0.65;0.40;;;23.70;94.60;;;;;;5011656;28;20032;-78
2022/07/11 12:21:45;;;;;;;0.68;0.40;;;23.70;94.70;;;;;;5011283;28;20046;-78
2022/07/11 12:24:15;;;;;;;0.47;0.47;;;23.40;94.80;;;;;;5011338;28;20105;-78
2022/07/11 12:26:42;;;;;;;0.50;0.35;;;23.40;94.90;;;;;;5011177;28;20046;-78
2022/07/11 12:29:11;;;;;;;0.20;0.20;;;23.10;95.10;;;;;;4993030;28;20466;-78
2022/07/11 12:31:48;;;;;;;1.90;0.30;;;23.20;94.30;;;;;;5008185;28;20475;-78
2022/07/11 12:34:16;;;;;;;0.52;0.32;;;22.90;94.70;;;;;;5010787;28;20340;-79
2022/07/11 12:36:42;;;;;;;0.88;0.40;;;23.10;95.40;;;;;;5008522;28;20076;-78
2022/07/11 12:39:08;;;;;;;0.30;0.30;;;23.10;95.20;;;;;;4992877;28;20124;-78
2022/07/11 12:41:34;;;;;;;0.45;0.28;;;23.00;95.30;;;;;;5009751;28;20446;-79
2022/07/11 12:46:47;;;;;;;0.52;0.32;;;23.00;95.20;;;;;;5010015;28;20071;-77
2022/07/11 12:49:13;;;;;;;0.85;0.20;;;23.10;95.10;;;;;;5004661;28;20033;-78
2022/07/11 12:51:41;;;;;;;0.40;0.30;;;23.10;95.20;;;;;;5002301;28;20030;-78
2022/07/11 12:54:08;;;;;;;0.30;0.30;;;23.10;95.40;;;;;;5009574;28;20478;-77
2022/07/11 12:56:35;;;;;;;0.40;0.30;;;23.00;95.30;;;;;;5005659;28;20051;-77
2022/07/11 12:59:02;;;;;;;0.75;0.30;;;23.00;95.40;;;;;;5006954;28;20026;-78
2022/07/11 13:01:31;;;;;;;2.20;0.30;;;22.70;95.60;;;;;;5009820;28;20104;-77